TimeCST,TemperatureF,Dew PointF,Humidity,Sea Level PressureIn,VisibilityMPH,Wind Direction,Wind SpeedMPH,Gust SpeedMPH,PrecipitationIn,Events,Conditions,WindDirDegrees,DateUTC
12:16 AM,17.6,12.2,79,29.87,10.0,SW,5.8,-,N/A,,Clear,230,2013-01-04 06:16:00
12:36 AM,17.6,12.2,79,29.87,10.0,WSW,8.1,-,N/A,,Clear,250,2013-01-04 06:36:00
12:56 AM,17.6,12.2,79,29.88,10.0,WSW,4.6,-,N/A,,Clear,250,2013-01-04 06:56:00
1:16 AM,17.6,12.2,79,29.88,10.0,WSW,5.8,-,N/A,,Clear,250,2013-01-04 07:16:00
1:36 AM,17.6,12.2,79,29.88,10.0,WSW,3.5,-,N/A,,Clear,250,2013-01-04 07:36:00
1:56 AM,17.6,12.2,79,29.88,10.0,WSW,4.6,-,N/A,,Clear,240,2013-01-04 07:56:00
2:16 AM,15.8,10.4,79,29.89,10.0,WSW,4.6,-,N/A,,Clear,250,2013-01-04 08:16:00
2:36 AM,14.0,10.4,86,29.89,10.0,WSW,4.6,-,N/A,,Clear,250,2013-01-04 08:36:00
2:56 AM,15.8,12.2,86,29.89,10.0,WSW,4.6,-,N/A,,Clear,240,2013-01-04 08:56:00
3:16 AM,15.8,12.2,86,29.90,10.0,West,4.6,-,N/A,,Clear,260,2013-01-04 09:16:00
3:36 AM,15.8,12.2,86,29.89,10.0,WSW,4.6,-,N/A,,Clear,240,2013-01-04 09:36:00
3:56 AM,15.8,12.2,86,29.89,10.0,WSW,4.6,-,N/A,,Clear,240,2013-01-04 09:56:00
4:16 AM,15.8,12.2,86,29.89,10.0,WSW,5.8,-,N/A,,Clear,250,2013-01-04 10:16:00
4:36 AM,15.8,12.2,86,29.89,10.0,WSW,4.6,-,N/A,,Clear,250,2013-01-04 10:36:00
4:56 AM,14.0,10.4,86,29.89,10.0,WSW,4.6,-,N/A,,Clear,240,2013-01-04 10:56:00
5:16 AM,12.2,10.4,92,29.90,10.0,WSW,3.5,-,N/A,,Clear,240,2013-01-04 11:16:00
5:36 AM,12.2,10.4,92,29.90,10.0,SW,3.5,-,N/A,,Clear,230,2013-01-04 11:36:00
5:56 AM,8.6,5.0,85,29.91,10.0,Calm,Calm,-,N/A,,Clear,0,2013-01-04 11:56:00
6:16 AM,6.8,3.2,85,29.92,10.0,Calm,Calm,-,N/A,,Clear,0,2013-01-04 12:16:00
6:36 AM,6.8,5.0,92,29.93,10.0,Calm,Calm,-,N/A,,Clear,0,2013-01-04 12:36:00
7:16 AM,6.8,3.2,85,29.94,10.0,WSW,3.5,-,N/A,,Clear,250,2013-01-04 13:16:00
7:36 AM,6.8,3.2,85,29.94,10.0,Calm,Calm,-,N/A,,Clear,0,2013-01-04 13:36:00
7:56 AM,5.0,3.2,92,29.95,2.5,Calm,Calm,-,N/A,Snow,Light Snow,0,2013-01-04 13:56:00
8:16 AM,5.0,1.4,85,29.95,10.0,Calm,Calm,-,N/A,,Clear,0,2013-01-04 14:16:00
8:36 AM,3.2,1.4,92,29.95,4.0,Calm,Calm,-,N/A,,Clear,0,2013-01-04 14:36:00
8:56 AM,6.8,5.0,92,29.96,10.0,Calm,Calm,-,N/A,,Clear,0,2013-01-04 14:56:00
9:16 AM,10.4,8.6,92,29.97,10.0,Calm,Calm,-,N/A,,Clear,0,2013-01-04 15:16:00
9:36 AM,14.0,12.2,93,29.98,10.0,Calm,Calm,-,N/A,,Clear,0,2013-01-04 15:36:00
9:56 AM,17.6,12.2,79,29.98,10.0,Calm,Calm,-,N/A,,Clear,0,2013-01-04 15:56:00
10:16 AM,19.4,14.0,80,29.99,10.0,Calm,Calm,-,N/A,,Clear,0,2013-01-04 16:16:00
10:36 AM,21.2,15.8,80,30.00,10.0,SW,3.5,-,N/A,,Clear,230,2013-01-04 16:36:00
10:56 AM,23.0,15.8,74,30.00,10.0,SW,4.6,-,N/A,,Clear,230,2013-01-04 16:56:00
11:16 AM,24.8,15.8,69,30.00,10.0,Calm,Calm,-,N/A,,Clear,0,2013-01-04 17:16:00
11:36 AM,26.6,15.8,64,30.01,10.0,Calm,Calm,-,N/A,,Clear,0,2013-01-04 17:36:00
11:56 AM,28.4,17.6,64,29.99,10.0,WNW,4.6,-,N/A,,Clear,290,2013-01-04 17:56:00
12:16 PM,28.4,17.6,64,29.99,10.0,West,5.8,-,N/A,,Clear,280,2013-01-04 18:16:00
12:36 PM,30.2,19.4,64,29.99,10.0,WNW,4.6,-,N/A,,Clear,300,2013-01-04 18:36:00
12:56 PM,30.2,19.4,64,29.99,10.0,West,3.5,-,N/A,,Clear,280,2013-01-04 18:56:00
1:16 PM,32.0,19.4,60,29.99,10.0,NNW,5.8,-,N/A,,Clear,330,2013-01-04 19:16:00
1:36 PM,30.2,19.4,64,30.00,10.0,NW,5.8,-,N/A,,Clear,310,2013-01-04 19:36:00
1:56 PM,30.2,19.4,64,29.99,10.0,WNW,8.1,-,N/A,,Clear,300,2013-01-04 19:56:00
2:16 PM,30.2,19.4,64,30.00,10.0,NW,3.5,-,N/A,,Clear,310,2013-01-04 20:16:00
2:36 PM,30.2,19.4,64,30.01,10.0,WNW,6.9,-,N/A,,Clear,300,2013-01-04 20:36:00
2:56 PM,30.2,19.4,64,30.00,10.0,NNW,5.8,-,N/A,,Clear,330,2013-01-04 20:56:00
3:16 PM,30.2,19.4,64,30.01,10.0,WNW,6.9,-,N/A,,Clear,290,2013-01-04 21:16:00
3:36 PM,30.2,19.4,64,30.02,10.0,NW,4.6,-,N/A,,Clear,310,2013-01-04 21:36:00
3:56 PM,30.2,19.4,64,30.02,10.0,Calm,Calm,-,N/A,,Clear,0,2013-01-04 21:56:00
4:16 PM,28.4,19.4,69,30.03,10.0,Calm,Calm,-,N/A,,Clear,0,2013-01-04 22:16:00
4:56 PM,24.8,17.6,74,30.05,10.0,Calm,Calm,-,N/A,,Clear,0,2013-01-04 22:56:00
5:16 PM,23.0,17.6,80,30.05,10.0,West,3.5,-,N/A,,Clear,280,2013-01-04 23:16:00
5:36 PM,19.4,15.8,86,30.05,10.0,Calm,Calm,-,N/A,,Clear,0,2013-01-04 23:36:00
5:56 PM,19.4,15.8,86,30.05,10.0,Calm,Calm,-,N/A,,Clear,0,2013-01-04 23:56:00
6:16 PM,17.6,15.8,93,30.05,10.0,Calm,Calm,-,N/A,,Clear,0,2013-01-05 00:16:00
6:36 PM,15.8,14.0,93,30.05,10.0,Calm,Calm,-,N/A,,Clear,0,2013-01-05 00:36:00
6:56 PM,15.8,12.2,86,30.06,10.0,Calm,Calm,-,N/A,,Clear,0,2013-01-05 00:56:00
7:16 PM,12.2,12.2,100,30.05,10.0,Calm,Calm,-,N/A,,Clear,0,2013-01-05 01:16:00
7:36 PM,14.0,12.2,93,30.05,10.0,Calm,Calm,-,N/A,,Clear,0,2013-01-05 01:36:00
7:56 PM,12.2,10.4,92,30.04,10.0,Calm,Calm,-,N/A,,Clear,0,2013-01-05 01:56:00
8:16 PM,12.2,10.4,92,30.04,10.0,Calm,Calm,-,N/A,,Clear,0,2013-01-05 02:16:00
8:36 PM,10.4,10.4,100,30.05,10.0,Calm,Calm,-,N/A,,Clear,0,2013-01-05 02:36:00
8:56 PM,10.4,10.4,100,30.05,10.0,Calm,Calm,-,N/A,,Clear,0,2013-01-05 02:56:00
9:16 PM,10.4,10.4,100,30.06,10.0,Calm,Calm,-,N/A,,Clear,0,2013-01-05 03:16:00
9:36 PM,8.6,6.8,92,30.06,10.0,Calm,Calm,-,N/A,,Clear,0,2013-01-05 03:36:00
9:56 PM,8.6,6.8,92,30.06,10.0,Calm,Calm,-,N/A,,Clear,0,2013-01-05 03:56:00
10:16 PM,8.6,6.8,92,30.05,10.0,Calm,Calm,-,N/A,,Clear,0,2013-01-05 04:16:00
10:36 PM,6.8,5.0,92,30.05,10.0,Calm,Calm,-,N/A,,Clear,0,2013-01-05 04:36:00
10:56 PM,6.8,3.2,85,30.04,10.0,Calm,Calm,-,N/A,,Clear,0,2013-01-05 04:56:00
11:16 PM,5.0,3.2,92,30.04,10.0,Calm,Calm,-,N/A,,Clear,0,2013-01-05 05:16:00
11:36 PM,5.0,1.4,85,30.03,10.0,Calm,Calm,-,N/A,,Clear,0,2013-01-05 05:36:00
11:56 PM,5.0,1.4,85,30.03,10.0,Calm,Calm,-,N/A,,Clear,0,2013-01-05 05:56:00